sensor_id;sensor_type;location;lat;lon;timestamp;P1;durP1;ratioP1;P2;durP2;ratioP2
83807;SDS011;73824;40.292;17.998;2024-03-22T00:01:55;34.95;;;18.08;;
83807;SDS011;73824;40.292;17.998;2024-03-22T00:04:21;35.92;;;18.30;;
83807;SDS011;73824;40.292;17.998;2024-03-22T00:06:47;33.58;;;16.55;;
83807;SDS011;73824;40.292;17.998;2024-03-22T00:09:14;32.70;;;16.50;;
83807;SDS011;73824;40.292;17.998;2024-03-22T00:11:41;32.78;;;17.35;;
83807;SDS011;73824;40.292;17.998;2024-03-22T00:14:07;39.58;;;18.10;;
83807;SDS011;73824;40.292;17.998;2024-03-22T00:16:33;33.38;;;18.15;;
83807;SDS011;73824;40.292;17.998;2024-03-22T00:18:59;31.00;;;16.33;;
83807;SDS011;73824;40.292;17.998;2024-03-22T00:21:24;33.35;;;16.70;;
83807;SDS011;73824;40.292;17.998;2024-03-22T00:23:50;32.43;;;17.03;;
83807;SDS011;73824;40.292;17.998;2024-03-22T00:26:16;34.33;;;17.52;;
83807;SDS011;73824;40.292;17.998;2024-03-22T00:28:41;35.50;;;18.02;;
83807;SDS011;73824;40.292;17.998;2024-03-22T00:31:08;36.43;;;18.30;;
83807;SDS011;73824;40.292;17.998;2024-03-22T00:33:34;34.90;;;17.25;;
83807;SDS011;73824;40.292;17.998;2024-03-22T00:36:00;32.85;;;17.63;;
83807;SDS011;73824;40.292;17.998;2024-03-22T00:38:25;35.03;;;17.70;;
83807;SDS011;73824;40.292;17.998;2024-03-22T00:40:51;33.05;;;17.58;;
83807;SDS011;73824;40.292;17.998;2024-03-22T00:43:17;35.97;;;17.90;;
83807;SDS011;73824;40.292;17.998;2024-03-22T00:45:42;35.90;;;16.23;;
83807;SDS011;73824;40.292;17.998;2024-03-22T00:48:08;33.70;;;17.02;;
83807;SDS011;73824;40.292;17.998;2024-03-22T00:50:34;30.90;;;17.23;;
83807;SDS011;73824;40.292;17.998;2024-03-22T00:53:00;32.55;;;17.42;;
83807;SDS011;73824;40.292;17.998;2024-03-22T00:55:28;32.35;;;18.00;;
83807;SDS011;73824;40.292;17.998;2024-03-22T00:57:54;31.13;;;17.67;;
83807;SDS011;73824;40.292;17.998;2024-03-22T01:00:19;31.50;;;15.82;;
83807;SDS011;73824;40.292;17.998;2024-03-22T01:02:45;30.57;;;16.63;;
83807;SDS011;73824;40.292;17.998;2024-03-22T01:05:10;30.67;;;17.00;;
83807;SDS011;73824;40.292;17.998;2024-03-22T01:07:36;30.77;;;16.00;;
83807;SDS011;73824;40.292;17.998;2024-03-22T01:10:05;31.50;;;17.52;;
83807;SDS011;73824;40.292;17.998;2024-03-22T01:12:31;31.42;;;16.17;;
83807;SDS011;73824;40.292;17.998;2024-03-22T01:14:57;30.60;;;16.60;;
83807;SDS011;73824;40.292;17.998;2024-03-22T01:17:23;31.67;;;16.67;;
83807;SDS011;73824;40.292;17.998;2024-03-22T01:19:48;29.83;;;15.83;;
83807;SDS011;73824;40.292;17.998;2024-03-22T01:22:14;34.45;;;17.83;;
83807;SDS011;73824;40.292;17.998;2024-03-22T01:24:41;31.73;;;17.15;;
83807;SDS011;73824;40.292;17.998;2024-03-22T01:27:06;37.45;;;18.13;;
83807;SDS011;73824;40.292;17.998;2024-03-22T01:29:32;33.73;;;17.60;;
83807;SDS011;73824;40.292;17.998;2024-03-22T01:31:58;31.43;;;17.17;;
83807;SDS011;73824;40.292;17.998;2024-03-22T01:34:24;34.15;;;17.45;;
83807;SDS011;73824;40.292;17.998;2024-03-22T01:36:50;31.90;;;17.88;;
83807;SDS011;73824;40.292;17.998;2024-03-22T01:39:19;33.65;;;17.70;;
83807;SDS011;73824;40.292;17.998;2024-03-22T01:41:48;32.40;;;16.73;;
83807;SDS011;73824;40.292;17.998;2024-03-22T01:44:14;35.78;;;18.10;;
83807;SDS011;73824;40.292;17.998;2024-03-22T01:46:41;33.63;;;18.10;;
83807;SDS011;73824;40.292;17.998;2024-03-22T01:49:11;34.38;;;17.20;;
83807;SDS011;73824;40.292;17.998;2024-03-22T01:51:42;39.08;;;18.83;;
83807;SDS011;73824;40.292;17.998;2024-03-22T01:54:09;33.87;;;17.90;;
83807;SDS011;73824;40.292;17.998;2024-03-22T01:56:38;35.20;;;17.98;;
83807;SDS011;73824;40.292;17.998;2024-03-22T01:59:05;31.80;;;16.13;;
83807;SDS011;73824;40.292;17.998;2024-03-22T02:01:31;32.20;;;16.13;;
83807;SDS011;73824;40.292;17.998;2024-03-22T02:03:58;36.10;;;17.15;;
83807;SDS011;73824;40.292;17.998;2024-03-22T02:06:24;38.10;;;17.97;;
83807;SDS011;73824;40.292;17.998;2024-03-22T02:08:49;34.63;;;17.58;;
83807;SDS011;73824;40.292;17.998;2024-03-22T02:11:15;34.60;;;17.40;;
83807;SDS011;73824;40.292;17.998;2024-03-22T02:13:40;34.27;;;17.13;;
83807;SDS011;73824;40.292;17.998;2024-03-22T02:16:08;33.55;;;17.75;;
83807;SDS011;73824;40.292;17.998;2024-03-22T02:18:33;32.83;;;17.00;;
83807;SDS011;73824;40.292;17.998;2024-03-22T02:20:59;34.27;;;17.30;;
83807;SDS011;73824;40.292;17.998;2024-03-22T02:23:34;30.50;;;16.07;;
83807;SDS011;73824;40.292;17.998;2024-03-22T02:26:01;35.17;;;17.52;;
83807;SDS011;73824;40.292;17.998;2024-03-22T02:28:27;33.92;;;17.42;;
83807;SDS011;73824;40.292;17.998;2024-03-22T02:30:53;35.95;;;18.92;;
83807;SDS011;73824;40.292;17.998;2024-03-22T02:33:18;35.93;;;18.47;;
83807;SDS011;73824;40.292;17.998;2024-03-22T02:35:47;33.67;;;17.85;;
83807;SDS011;73824;40.292;17.998;2024-03-22T02:38:13;33.97;;;17.70;;
83807;SDS011;73824;40.292;17.998;2024-03-22T02:40:38;33.75;;;17.85;;
83807;SDS011;73824;40.292;17.998;2024-03-22T02:43:04;34.13;;;18.27;;
83807;SDS011;73824;40.292;17.998;2024-03-22T02:45:30;34.83;;;17.77;;
83807;SDS011;73824;40.292;17.998;2024-03-22T02:47:56;33.50;;;17.73;;
83807;SDS011;73824;40.292;17.998;2024-03-22T02:50:22;34.40;;;17.83;;
83807;SDS011;73824;40.292;17.998;2024-03-22T02:52:50;32.37;;;17.00;;
83807;SDS011;73824;40.292;17.998;2024-03-22T02:55:16;31.70;;;16.15;;
83807;SDS011;73824;40.292;17.998;2024-03-22T02:57:42;27.20;;;14.60;;
83807;SDS011;73824;40.292;17.998;2024-03-22T03:00:07;31.30;;;15.40;;
83807;SDS011;73824;40.292;17.998;2024-03-22T03:02:33;30.35;;;15.43;;
83807;SDS011;73824;40.292;17.998;2024-03-22T03:05:00;33.57;;;15.23;;
83807;SDS011;73824;40.292;17.998;2024-03-22T03:07:26;27.30;;;14.48;;
83807;SDS011;73824;40.292;17.998;2024-03-22T03:09:55;30.45;;;15.07;;
83807;SDS011;73824;40.292;17.998;2024-03-22T03:12:20;26.10;;;13.60;;
83807;SDS011;73824;40.292;17.998;2024-03-22T03:14:46;30.17;;;15.25;;
83807;SDS011;73824;40.292;17.998;2024-03-22T03:17:12;26.27;;;13.40;;
83807;SDS011;73824;40.292;17.998;2024-03-22T03:19:37;28.30;;;12.27;;
83807;SDS011;73824;40.292;17.998;2024-03-22T03:22:03;24.35;;;12.27;;
83807;SDS011;73824;40.292;17.998;2024-03-22T03:24:28;23.83;;;11.50;;
83807;SDS011;73824;40.292;17.998;2024-03-22T03:26:54;21.73;;;10.63;;
83807;SDS011;73824;40.292;17.998;2024-03-22T03:29:20;20.87;;;10.27;;
83807;SDS011;73824;40.292;17.998;2024-03-22T03:31:45;21.00;;;10.60;;
83807;SDS011;73824;40.292;17.998;2024-03-22T03:34:11;21.23;;;10.63;;
83807;SDS011;73824;40.292;17.998;2024-03-22T03:36:36;21.17;;;10.30;;
83807;SDS011;73824;40.292;17.998;2024-03-22T03:39:02;20.63;;;9.68;;
83807;SDS011;73824;40.292;17.998;2024-03-22T03:41:29;21.73;;;10.07;;
83807;SDS011;73824;40.292;17.998;2024-03-22T03:43:54;16.87;;;8.80;;
83807;SDS011;73824;40.292;17.998;2024-03-22T03:46:20;19.67;;;8.77;;
83807;SDS011;73824;40.292;17.998;2024-03-22T03:48:46;18.02;;;8.93;;
83807;SDS011;73824;40.292;17.998;2024-03-22T03:51:11;18.90;;;8.63;;
83807;SDS011;73824;40.292;17.998;2024-03-22T03:53:37;19.40;;;9.17;;
83807;SDS011;73824;40.292;17.998;2024-03-22T03:56:02;18.23;;;8.98;;
83807;SDS011;73824;40.292;17.998;2024-03-22T03:58:28;16.00;;;8.20;;
83807;SDS011;73824;40.292;17.998;2024-03-22T04:00:53;21.65;;;10.55;;
83807;SDS011;73824;40.292;17.998;2024-03-22T04:03:19;20.65;;;11.05;;
83807;SDS011;73824;40.292;17.998;2024-03-22T04:05:45;20.87;;;10.93;;
83807;SDS011;73824;40.292;17.998;2024-03-22T04:08:10;16.80;;;8.57;;
83807;SDS011;73824;40.292;17.998;2024-03-22T04:10:36;21.37;;;9.43;;
83807;SDS011;73824;40.292;17.998;2024-03-22T04:13:01;17.60;;;8.80;;
83807;SDS011;73824;40.292;17.998;2024-03-22T04:15:27;18.38;;;8.75;;
83807;SDS011;73824;40.292;17.998;2024-03-22T04:17:54;22.57;;;10.00;;
83807;SDS011;73824;40.292;17.998;2024-03-22T04:20:21;23.02;;;10.85;;
83807;SDS011;73824;40.292;17.998;2024-03-22T04:22:47;21.87;;;10.43;;
83807;SDS011;73824;40.292;17.998;2024-03-22T04:25:14;22.70;;;10.52;;
83807;SDS011;73824;40.292;17.998;2024-03-22T04:27:41;22.88;;;11.05;;
83807;SDS011;73824;40.292;17.998;2024-03-22T04:30:06;19.95;;;10.23;;
83807;SDS011;73824;40.292;17.998;2024-03-22T04:32:33;21.35;;;10.38;;
83807;SDS011;73824;40.292;17.998;2024-03-22T04:34:59;26.93;;;13.57;;
83807;SDS011;73824;40.292;17.998;2024-03-22T04:37:24;25.35;;;12.40;;
83807;SDS011;73824;40.292;17.998;2024-03-22T04:39:50;26.87;;;13.17;;
83807;SDS011;73824;40.292;17.998;2024-03-22T04:42:15;29.57;;;13.57;;
83807;SDS011;73824;40.292;17.998;2024-03-22T04:44:41;27.23;;;12.85;;
83807;SDS011;73824;40.292;17.998;2024-03-22T04:47:07;30.10;;;15.20;;
83807;SDS011;73824;40.292;17.998;2024-03-22T04:49:32;20.53;;;10.53;;
83807;SDS011;73824;40.292;17.998;2024-03-22T04:51:58;20.17;;;9.10;;
83807;SDS011;73824;40.292;17.998;2024-03-22T04:54:23;18.45;;;8.73;;
83807;SDS011;73824;40.292;17.998;2024-03-22T04:56:49;19.00;;;8.93;;
83807;SDS011;73824;40.292;17.998;2024-03-22T04:59:15;22.48;;;10.68;;
83807;SDS011;73824;40.292;17.998;2024-03-22T05:01:40;25.70;;;12.17;;
83807;SDS011;73824;40.292;17.998;2024-03-22T05:04:07;26.90;;;13.15;;
83807;SDS011;73824;40.292;17.998;2024-03-22T05:06:32;29.57;;;13.33;;
83807;SDS011;73824;40.292;17.998;2024-03-22T05:08:58;31.43;;;14.60;;
83807;SDS011;73824;40.292;17.998;2024-03-22T05:11:26;26.85;;;13.27;;
83807;SDS011;73824;40.292;17.998;2024-03-22T05:13:51;28.23;;;13.90;;
83807;SDS011;73824;40.292;17.998;2024-03-22T05:16:17;26.58;;;12.38;;
83807;SDS011;73824;40.292;17.998;2024-03-22T05:18:43;27.77;;;13.30;;
83807;SDS011;73824;40.292;17.998;2024-03-22T05:21:08;26.95;;;13.32;;
83807;SDS011;73824;40.292;17.998;2024-03-22T05:23:34;27.80;;;12.80;;
83807;SDS011;73824;40.292;17.998;2024-03-22T05:25:59;26.10;;;11.87;;
83807;SDS011;73824;40.292;17.998;2024-03-22T05:28:25;23.60;;;12.25;;
83807;SDS011;73824;40.292;17.998;2024-03-22T05:30:51;24.17;;;11.53;;
83807;SDS011;73824;40.292;17.998;2024-03-22T05:33:17;27.00;;;12.98;;
83807;SDS011;73824;40.292;17.998;2024-03-22T05:35:42;27.50;;;13.47;;
83807;SDS011;73824;40.292;17.998;2024-03-22T05:38:08;30.33;;;14.03;;
83807;SDS011;73824;40.292;17.998;2024-03-22T05:40:35;28.40;;;15.00;;
83807;SDS011;73824;40.292;17.998;2024-03-22T05:43:03;28.77;;;13.80;;
83807;SDS011;73824;40.292;17.998;2024-03-22T05:45:29;28.38;;;13.20;;
83807;SDS011;73824;40.292;17.998;2024-03-22T05:47:54;31.03;;;13.17;;
83807;SDS011;73824;40.292;17.998;2024-03-22T05:50:20;24.35;;;12.40;;
83807;SDS011;73824;40.292;17.998;2024-03-22T05:52:45;26.90;;;13.32;;
83807;SDS011;73824;40.292;17.998;2024-03-22T05:55:11;24.20;;;11.80;;
83807;SDS011;73824;40.292;17.998;2024-03-22T05:57:37;22.77;;;11.10;;
83807;SDS011;73824;40.292;17.998;2024-03-22T06:00:02;23.47;;;11.37;;
83807;SDS011;73824;40.292;17.998;2024-03-22T06:02:28;25.35;;;12.23;;
83807;SDS011;73824;40.292;17.998;2024-03-22T06:04:54;25.40;;;12.60;;
83807;SDS011;73824;40.292;17.998;2024-03-22T06:07:19;41.27;;;17.77;;
83807;SDS011;73824;40.292;17.998;2024-03-22T06:09:45;26.00;;;11.32;;
83807;SDS011;73824;40.292;17.998;2024-03-22T06:12:14;20.08;;;10.65;;
83807;SDS011;73824;40.292;17.998;2024-03-22T06:14:41;20.10;;;9.57;;
83807;SDS011;73824;40.292;17.998;2024-03-22T06:17:09;21.33;;;10.70;;
83807;SDS011;73824;40.292;17.998;2024-03-22T06:19:36;22.13;;;9.43;;
83807;SDS011;73824;40.292;17.998;2024-03-22T06:22:02;19.27;;;9.15;;
83807;SDS011;73824;40.292;17.998;2024-03-22T06:24:28;19.87;;;9.30;;
83807;SDS011;73824;40.292;17.998;2024-03-22T06:26:54;26.13;;;10.43;;
83807;SDS011;73824;40.292;17.998;2024-03-22T06:29:20;25.65;;;11.63;;
83807;SDS011;73824;40.292;17.998;2024-03-22T06:31:45;21.73;;;10.43;;
83807;SDS011;73824;40.292;17.998;2024-03-22T06:34:12;26.48;;;11.40;;
83807;SDS011;73824;40.292;17.998;2024-03-22T06:36:37;22.30;;;10.20;;
83807;SDS011;73824;40.292;17.998;2024-03-22T06:39:03;20.70;;;9.37;;
83807;SDS011;73824;40.292;17.998;2024-03-22T06:41:32;18.73;;;9.23;;
83807;SDS011;73824;40.292;17.998;2024-03-22T06:43:58;20.75;;;9.73;;
83807;SDS011;73824;40.292;17.998;2024-03-22T06:46:23;24.93;;;9.70;;
83807;SDS011;73824;40.292;17.998;2024-03-22T06:48:49;16.95;;;8.35;;
83807;SDS011;73824;40.292;17.998;2024-03-22T06:51:15;18.80;;;9.07;;
83807;SDS011;73824;40.292;17.998;2024-03-22T06:53:41;18.52;;;9.70;;
83807;SDS011;73824;40.292;17.998;2024-03-22T06:56:11;17.63;;;8.77;;
83807;SDS011;73824;40.292;17.998;2024-03-22T06:58:37;20.77;;;10.32;;
83807;SDS011;73824;40.292;17.998;2024-03-22T07:01:03;19.77;;;10.15;;
83807;SDS011;73824;40.292;17.998;2024-03-22T07:03:41;18.02;;;9.70;;
83807;SDS011;73824;40.292;17.998;2024-03-22T07:06:10;22.60;;;11.50;;
83807;SDS011;73824;40.292;17.998;2024-03-22T07:08:52;20.40;;;10.70;;
83807;SDS011;73824;40.292;17.998;2024-03-22T07:11:53;20.63;;;10.45;;
83807;SDS011;73824;40.292;17.998;2024-03-22T07:15:00;18.98;;;9.98;;
83807;SDS011;73824;40.292;17.998;2024-03-22T07:17:37;23.48;;;10.07;;
83807;SDS011;73824;40.292;17.998;2024-03-22T07:20:06;18.40;;;9.80;;
83807;SDS011;73824;40.292;17.998;2024-03-22T07:22:32;19.27;;;9.95;;
83807;SDS011;73824;40.292;17.998;2024-03-22T07:24:58;19.50;;;9.57;;
83807;SDS011;73824;40.292;17.998;2024-03-22T07:27:29;16.98;;;9.63;;
83807;SDS011;73824;40.292;17.998;2024-03-22T07:29:56;17.17;;;9.20;;
83807;SDS011;73824;40.292;17.998;2024-03-22T07:32:22;15.73;;;8.23;;
83807;SDS011;73824;40.292;17.998;2024-03-22T07:34:48;16.33;;;9.33;;
83807;SDS011;73824;40.292;17.998;2024-03-22T07:37:13;14.35;;;7.43;;
83807;SDS011;73824;40.292;17.998;2024-03-22T07:39:39;14.52;;;7.57;;
83807;SDS011;73824;40.292;17.998;2024-03-22T07:42:08;12.43;;;7.00;;
83807;SDS011;73824;40.292;17.998;2024-03-22T07:44:37;13.32;;;7.15;;
83807;SDS011;73824;40.292;17.998;2024-03-22T07:47:02;13.63;;;6.83;;
83807;SDS011;73824;40.292;17.998;2024-03-22T07:49:28;13.52;;;6.80;;
83807;SDS011;73824;40.292;17.998;2024-03-22T07:51:54;11.87;;;6.00;;
83807;SDS011;73824;40.292;17.998;2024-03-22T07:54:19;14.18;;;6.25;;
83807;SDS011;73824;40.292;17.998;2024-03-22T07:56:45;13.75;;;6.15;;
83807;SDS011;73824;40.292;17.998;2024-03-22T07:59:11;14.40;;;6.67;;
83807;SDS011;73824;40.292;17.998;2024-03-22T08:01:37;12.52;;;6.18;;
83807;SDS011;73824;40.292;17.998;2024-03-22T08:04:03;11.80;;;6.00;;
83807;SDS011;73824;40.292;17.998;2024-03-22T08:06:29;9.55;;;4.53;;
83807;SDS011;73824;40.292;17.998;2024-03-22T08:08:55;15.20;;;5.90;;
83807;SDS011;73824;40.292;17.998;2024-03-22T08:11:20;10.38;;;5.15;;
83807;SDS011;73824;40.292;17.998;2024-03-22T08:13:46;10.77;;;5.17;;
83807;SDS011;73824;40.292;17.998;2024-03-22T08:16:11;10.45;;;5.07;;
83807;SDS011;73824;40.292;17.998;2024-03-22T08:18:37;12.73;;;4.93;;
83807;SDS011;73824;40.292;17.998;2024-03-22T08:21:03;10.30;;;5.25;;
83807;SDS011;73824;40.292;17.998;2024-03-22T08:23:29;11.30;;;4.97;;
83807;SDS011;73824;40.292;17.998;2024-03-22T08:25:55;11.38;;;4.53;;
83807;SDS011;73824;40.292;17.998;2024-03-22T08:28:22;10.95;;;5.40;;
83807;SDS011;73824;40.292;17.998;2024-03-22T08:30:51;8.52;;;3.42;;
83807;SDS011;73824;40.292;17.998;2024-03-22T08:33:20;9.87;;;4.47;;
83807;SDS011;73824;40.292;17.998;2024-03-22T08:35:45;10.93;;;4.75;;
83807;SDS011;73824;40.292;17.998;2024-03-22T08:38:11;14.07;;;5.97;;
83807;SDS011;73824;40.292;17.998;2024-03-22T08:40:40;12.18;;;5.57;;
83807;SDS011;73824;40.292;17.998;2024-03-22T08:43:11;12.00;;;5.28;;
83807;SDS011;73824;40.292;17.998;2024-03-22T08:45:37;12.33;;;4.40;;
83807;SDS011;73824;40.292;17.998;2024-03-22T08:48:21;9.57;;;3.67;;
83807;SDS011;73824;40.292;17.998;2024-03-22T08:51:19;9.52;;;2.83;;
83807;SDS011;73824;40.292;17.998;2024-03-22T08:53:48;8.27;;;2.50;;
83807;SDS011;73824;40.292;17.998;2024-03-22T08:56:16;7.30;;;2.60;;
83807;SDS011;73824;40.292;17.998;2024-03-22T08:58:51;7.00;;;2.40;;
83807;SDS011;73824;40.292;17.998;2024-03-22T09:01:17;5.90;;;2.13;;
83807;SDS011;73824;40.292;17.998;2024-03-22T09:03:48;7.32;;;2.72;;
83807;SDS011;73824;40.292;17.998;2024-03-22T09:06:16;7.13;;;2.70;;
83807;SDS011;73824;40.292;17.998;2024-03-22T09:08:42;6.28;;;2.13;;
83807;SDS011;73824;40.292;17.998;2024-03-22T09:11:17;8.25;;;2.50;;
83807;SDS011;73824;40.292;17.998;2024-03-22T09:13:43;8.88;;;2.13;;
83807;SDS011;73824;40.292;17.998;2024-03-22T09:16:14;8.07;;;2.05;;
83807;SDS011;73824;40.292;17.998;2024-03-22T09:18:43;8.68;;;2.30;;
83807;SDS011;73824;40.292;17.998;2024-03-22T09:21:12;7.78;;;2.92;;
83807;SDS011;73824;40.292;17.998;2024-03-22T09:23:38;6.22;;;2.20;;
83807;SDS011;73824;40.292;17.998;2024-03-22T09:26:06;7.63;;;2.70;;
83807;SDS011;73824;40.292;17.998;2024-03-22T09:28:32;7.05;;;2.50;;
83807;SDS011;73824;40.292;17.998;2024-03-22T09:30:58;7.93;;;2.67;;
83807;SDS011;73824;40.292;17.998;2024-03-22T09:33:28;7.20;;;2.50;;
83807;SDS011;73824;40.292;17.998;2024-03-22T09:35:54;7.82;;;3.17;;
83807;SDS011;73824;40.292;17.998;2024-03-22T09:38:19;9.33;;;2.67;;
83807;SDS011;73824;40.292;17.998;2024-03-22T09:40:46;8.68;;;2.88;;
83807;SDS011;73824;40.292;17.998;2024-03-22T09:43:19;8.32;;;2.85;;
83807;SDS011;73824;40.292;17.998;2024-03-22T09:45:45;6.60;;;2.20;;
83807;SDS011;73824;40.292;17.998;2024-03-22T09:48:13;7.40;;;2.30;;
83807;SDS011;73824;40.292;17.998;2024-03-22T09:50:40;7.22;;;2.65;;
83807;SDS011;73824;40.292;17.998;2024-03-22T09:53:06;8.45;;;2.88;;
83807;SDS011;73824;40.292;17.998;2024-03-22T09:55:37;7.18;;;3.03;;
83807;SDS011;73824;40.292;17.998;2024-03-22T09:58:11;8.50;;;2.60;;
83807;SDS011;73824;40.292;17.998;2024-03-22T10:00:37;8.43;;;3.03;;
83807;SDS011;73824;40.292;17.998;2024-03-22T10:03:12;9.40;;;2.90;;
83807;SDS011;73824;40.292;17.998;2024-03-22T10:05:41;6.03;;;2.00;;
83807;SDS011;73824;40.292;17.998;2024-03-22T10:08:07;7.57;;;2.73;;
83807;SDS011;73824;40.292;17.998;2024-03-22T10:10:33;9.25;;;2.75;;
83807;SDS011;73824;40.292;17.998;2024-03-22T10:13:02;8.50;;;2.50;;
83807;SDS011;73824;40.292;17.998;2024-03-22T10:15:34;7.80;;;2.60;;
83807;SDS011;73824;40.292;17.998;2024-03-22T10:18:00;8.93;;;2.70;;
83807;SDS011;73824;40.292;17.998;2024-03-22T10:20:25;7.68;;;2.88;;
83807;SDS011;73824;40.292;17.998;2024-03-22T10:22:58;7.85;;;2.50;;
83807;SDS011;73824;40.292;17.998;2024-03-22T10:25:27;9.80;;;3.03;;
83807;SDS011;73824;40.292;17.998;2024-03-22T10:27:54;8.75;;;2.85;;
83807;SDS011;73824;40.292;17.998;2024-03-22T10:30:31;8.98;;;2.90;;
83807;SDS011;73824;40.292;17.998;2024-03-22T10:33:00;7.28;;;2.17;;
83807;SDS011;73824;40.292;17.998;2024-03-22T10:35:27;8.10;;;3.03;;
83807;SDS011;73824;40.292;17.998;2024-03-22T10:37:53;8.75;;;3.20;;
83807;SDS011;73824;40.292;17.998;2024-03-22T10:40:18;8.43;;;2.97;;
83807;SDS011;73824;40.292;17.998;2024-03-22T10:42:49;6.63;;;2.47;;
83807;SDS011;73824;40.292;17.998;2024-03-22T10:45:15;8.23;;;2.90;;
83807;SDS011;73824;40.292;17.998;2024-03-22T10:47:50;6.38;;;2.30;;
83807;SDS011;73824;40.292;17.998;2024-03-22T10:50:20;10.10;;;3.28;;
83807;SDS011;73824;40.292;17.998;2024-03-22T10:52:52;8.23;;;2.50;;
83807;SDS011;73824;40.292;17.998;2024-03-22T10:55:36;9.23;;;2.72;;
83807;SDS011;73824;40.292;17.998;2024-03-22T10:58:04;8.88;;;2.75;;
83807;SDS011;73824;40.292;17.998;2024-03-22T11:00:30;9.00;;;3.17;;
83807;SDS011;73824;40.292;17.998;2024-03-22T11:03:04;10.88;;;4.63;;
83807;SDS011;73824;40.292;17.998;2024-03-22T11:05:33;7.53;;;3.00;;
83807;SDS011;73824;40.292;17.998;2024-03-22T11:07:59;7.25;;;2.60;;
83807;SDS011;73824;40.292;17.998;2024-03-22T11:10:30;9.32;;;2.70;;
83807;SDS011;73824;40.292;17.998;2024-03-22T11:13:02;7.15;;;2.30;;
83807;SDS011;73824;40.292;17.998;2024-03-22T11:15:41;7.57;;;1.98;;
83807;SDS011;73824;40.292;17.998;2024-03-22T11:18:10;7.03;;;2.10;;
83807;SDS011;73824;40.292;17.998;2024-03-22T11:20:44;6.32;;;1.90;;
83807;SDS011;73824;40.292;17.998;2024-03-22T11:23:16;6.43;;;2.10;;
83807;SDS011;73824;40.292;17.998;2024-03-22T11:26:11;6.72;;;1.90;;
83807;SDS011;73824;40.292;17.998;2024-03-22T11:28:43;7.65;;;2.60;;
83807;SDS011;73824;40.292;17.998;2024-03-22T11:31:08;7.32;;;1.77;;
83807;SDS011;73824;40.292;17.998;2024-03-22T11:33:34;6.27;;;1.70;;
83807;SDS011;73824;40.292;17.998;2024-03-22T11:36:01;5.07;;;1.48;;
83807;SDS011;73824;40.292;17.998;2024-03-22T11:38:31;7.18;;;2.55;;
83807;SDS011;73824;40.292;17.998;2024-03-22T11:41:06;6.45;;;2.03;;
83807;SDS011;73824;40.292;17.998;2024-03-22T11:43:32;8.98;;;3.80;;
83807;SDS011;73824;40.292;17.998;2024-03-22T11:46:04;7.57;;;3.38;;
83807;SDS011;73824;40.292;17.998;2024-03-22T11:48:32;6.28;;;1.60;;
83807;SDS011;73824;40.292;17.998;2024-03-22T11:50:58;5.18;;;1.63;;
83807;SDS011;73824;40.292;17.998;2024-03-22T11:53:27;5.68;;;1.90;;
83807;SDS011;73824;40.292;17.998;2024-03-22T11:55:53;6.65;;;2.17;;
83807;SDS011;73824;40.292;17.998;2024-03-22T11:58:18;8.35;;;2.38;;
83807;SDS011;73824;40.292;17.998;2024-03-22T12:00:44;8.27;;;2.33;;
83807;SDS011;73824;40.292;17.998;2024-03-22T12:03:10;6.45;;;2.40;;
83807;SDS011;73824;40.292;17.998;2024-03-22T12:05:36;8.98;;;2.30;;
83807;SDS011;73824;40.292;17.998;2024-03-22T12:08:02;6.20;;;2.23;;
83807;SDS011;73824;40.292;17.998;2024-03-22T12:10:28;7.13;;;2.42;;
83807;SDS011;73824;40.292;17.998;2024-03-22T12:12:54;9.73;;;2.75;;
83807;SDS011;73824;40.292;17.998;2024-03-22T12:15:21;8.68;;;2.15;;
83807;SDS011;73824;40.292;17.998;2024-03-22T12:17:52;5.60;;;1.77;;
83807;SDS011;73824;40.292;17.998;2024-03-22T12:20:18;6.20;;;2.17;;
83807;SDS011;73824;40.292;17.998;2024-03-22T12:22:44;7.32;;;2.50;;
83807;SDS011;73824;40.292;17.998;2024-03-22T12:25:13;7.93;;;1.80;;
83807;SDS011;73824;40.292;17.998;2024-03-22T12:27:38;5.93;;;2.30;;
83807;SDS011;73824;40.292;17.998;2024-03-22T12:30:04;6.15;;;2.30;;
83807;SDS011;73824;40.292;17.998;2024-03-22T12:32:31;8.23;;;1.98;;
83807;SDS011;73824;40.292;17.998;2024-03-22T12:35:00;7.25;;;2.13;;
83807;SDS011;73824;40.292;17.998;2024-03-22T12:37:26;6.47;;;2.00;;
83807;SDS011;73824;40.292;17.998;2024-03-22T12:39:51;5.83;;;1.93;;
83807;SDS011;73824;40.292;17.998;2024-03-22T12:42:17;6.82;;;1.88;;
83807;SDS011;73824;40.292;17.998;2024-03-22T12:44:43;7.47;;;2.10;;
83807;SDS011;73824;40.292;17.998;2024-03-22T12:47:09;7.38;;;2.60;;
83807;SDS011;73824;40.292;17.998;2024-03-22T12:49:35;5.78;;;1.88;;
83807;SDS011;73824;40.292;17.998;2024-03-22T12:52:01;7.05;;;1.90;;
83807;SDS011;73824;40.292;17.998;2024-03-22T12:54:27;10.20;;;2.33;;
83807;SDS011;73824;40.292;17.998;2024-03-22T12:56:53;6.93;;;2.15;;
83807;SDS011;73824;40.292;17.998;2024-03-22T12:59:19;6.35;;;2.20;;
83807;SDS011;73824;40.292;17.998;2024-03-22T13:01:44;7.90;;;2.60;;
83807;SDS011;73824;40.292;17.998;2024-03-22T13:04:10;8.00;;;2.40;;
83807;SDS011;73824;40.292;17.998;2024-03-22T13:06:36;6.10;;;2.20;;
83807;SDS011;73824;40.292;17.998;2024-03-22T13:09:02;8.80;;;2.60;;
83807;SDS011;73824;40.292;17.998;2024-03-22T13:11:34;9.13;;;2.25;;
83807;SDS011;73824;40.292;17.998;2024-03-22T13:14:00;8.23;;;3.08;;
83807;SDS011;73824;40.292;17.998;2024-03-22T13:16:47;8.27;;;2.47;;
83807;SDS011;73824;40.292;17.998;2024-03-22T13:19:15;6.88;;;2.38;;
83807;SDS011;73824;40.292;17.998;2024-03-22T13:21:43;7.88;;;3.00;;
83807;SDS011;73824;40.292;17.998;2024-03-22T13:24:18;10.82;;;2.58;;
83807;SDS011;73824;40.292;17.998;2024-03-22T13:26:44;6.25;;;2.40;;
83807;SDS011;73824;40.292;17.998;2024-03-22T13:29:10;8.47;;;2.40;;
83807;SDS011;73824;40.292;17.998;2024-03-22T13:31:38;8.55;;;2.13;;
83807;SDS011;73824;40.292;17.998;2024-03-22T13:34:04;5.45;;;1.67;;
83807;SDS011;73824;40.292;17.998;2024-03-22T13:36:33;7.40;;;2.25;;
83807;SDS011;73824;40.292;17.998;2024-03-22T13:39:03;6.57;;;2.40;;
83807;SDS011;73824;40.292;17.998;2024-03-22T13:41:29;6.40;;;2.40;;
83807;SDS011;73824;40.292;17.998;2024-03-22T13:43:58;6.30;;;2.13;;
83807;SDS011;73824;40.292;17.998;2024-03-22T13:46:28;6.13;;;2.33;;
83807;SDS011;73824;40.292;17.998;2024-03-22T13:49:17;7.13;;;2.38;;
83807;SDS011;73824;40.292;17.998;2024-03-22T13:51:46;7.03;;;2.42;;
83807;SDS011;73824;40.292;17.998;2024-03-22T13:54:18;8.77;;;2.72;;
83807;SDS011;73824;40.292;17.998;2024-03-22T13:56:47;9.25;;;4.05;;
83807;SDS011;73824;40.292;17.998;2024-03-22T13:59:12;7.80;;;3.80;;
83807;SDS011;73824;40.292;17.998;2024-03-22T14:01:39;6.85;;;2.83;;
83807;SDS011;73824;40.292;17.998;2024-03-22T14:04:18;8.38;;;2.80;;
83807;SDS011;73824;40.292;17.998;2024-03-22T14:06:45;7.68;;;2.30;;
83807;SDS011;73824;40.292;17.998;2024-03-22T14:09:26;7.25;;;2.55;;
83807;SDS011;73824;40.292;17.998;2024-03-22T14:11:52;9.05;;;2.45;;
83807;SDS011;73824;40.292;17.998;2024-03-22T14:14:18;6.60;;;2.38;;
83807;SDS011;73824;40.292;17.998;2024-03-22T14:16:44;7.27;;;2.20;;
83807;SDS011;73824;40.292;17.998;2024-03-22T14:19:10;7.75;;;2.40;;
83807;SDS011;73824;40.292;17.998;2024-03-22T14:21:36;8.43;;;2.60;;
83807;SDS011;73824;40.292;17.998;2024-03-22T14:24:03;7.05;;;2.53;;